createdAt,value
2019-04-28T00:02:01.330Z,12.70
2019-04-28T00:04:32.708Z,8.28
2019-04-28T00:07:02.865Z,23.67
2019-04-28T00:09:34.096Z,11.05
2019-04-28T00:12:04.636Z,7.67
2019-04-28T00:14:34.803Z,11.30
2019-04-28T00:17:05.718Z,11.10
2019-04-28T00:19:36.148Z,15.28
2019-04-28T00:22:07.941Z,11.05
2019-04-28T00:24:45.413Z,14.58
2019-04-28T00:27:16.739Z,10.10
2019-04-28T00:29:46.960Z,9.30
2019-04-28T00:32:17.239Z,10.60
2019-04-28T00:34:47.464Z,8.78
2019-04-28T00:37:21.021Z,9.95
2019-04-28T00:39:51.052Z,10.00
2019-04-28T00:42:22.790Z,14.75
2019-04-28T00:44:54.111Z,13.22
2019-04-28T00:47:24.667Z,11.45
2019-04-28T00:49:54.827Z,13.70
2019-04-28T00:52:25.089Z,13.00
2019-04-28T00:54:55.412Z,13.78
2019-04-28T00:57:25.544Z,13.78
2019-04-28T00:59:58.740Z,13.45
2019-04-28T01:02:31.001Z,15.05
2019-04-28T01:05:01.496Z,14.20
2019-04-28T01:07:33.007Z,13.75
2019-04-28T01:10:03.824Z,11.48
2019-04-28T01:12:34.176Z,13.45
2019-04-28T01:15:06.200Z,13.85
2019-04-28T01:17:41.806Z,11.95
2019-04-28T01:20:19.729Z,18.50
2019-04-28T01:22:49.964Z,14.98
2019-04-28T01:25:20.370Z,15.10
2019-04-28T01:27:52.133Z,14.58
2019-04-28T01:30:36.524Z,11.43
2019-04-28T01:33:11.213Z,11.12
2019-04-28T01:35:41.425Z,15.15
2019-04-28T01:38:12.268Z,11.80
2019-04-28T01:40:42.575Z,12.80
2019-04-28T01:43:12.720Z,12.70
2019-04-28T01:45:42.813Z,17.95
2019-04-28T01:48:12.968Z,12.43
2019-04-28T01:50:43.070Z,13.40
2019-04-28T01:53:13.203Z,15.78
2019-04-28T01:55:43.374Z,12.93
2019-04-28T01:58:13.598Z,11.40
2019-04-28T02:00:43.828Z,14.83
2019-04-28T02:03:13.980Z,13.10
2019-04-28T02:05:44.147Z,13.60
2019-04-28T02:08:14.391Z,18.77
2019-04-28T02:10:44.621Z,15.43
2019-04-28T02:13:14.778Z,14.20
2019-04-28T02:15:45.032Z,13.80
2019-04-28T02:18:15.111Z,17.05
2019-04-28T02:20:46.877Z,11.85
2019-04-28T02:23:30.388Z,15.72
2019-04-28T02:26:00.477Z,13.28
2019-04-28T02:28:30.693Z,14.00
2019-04-28T02:31:02.323Z,18.65
2019-04-28T02:33:32.545Z,14.07
2019-04-28T02:36:02.735Z,17.77
2019-04-28T02:38:34.301Z,12.20
2019-04-28T02:41:05.673Z,12.90
2019-04-28T02:43:35.906Z,14.58
2019-04-28T02:46:06.436Z,12.35
2019-04-28T02:48:36.516Z,13.43
2019-04-28T02:51:10.820Z,15.85
2019-04-28T02:53:41.273Z,15.70
2019-04-28T02:56:11.440Z,15.40
2019-04-28T02:58:41.792Z,13.78
2019-04-28T03:01:21.855Z,12.63
2019-04-28T03:03:43.783Z,14.15
2019-04-28T03:06:14.002Z,14.00
2019-04-28T03:08:44.285Z,12.98
2019-04-28T03:11:14.448Z,16.25
2019-04-28T03:13:44.537Z,16.90
2019-04-28T03:16:14.701Z,15.38
2019-04-28T03:18:44.938Z,21.27
2019-04-28T03:21:15.207Z,16.55
2019-04-28T03:23:45.449Z,24.50
2019-04-28T03:26:33.042Z,18.42
2019-04-28T03:29:22.625Z,15.65
2019-04-28T03:32:15.480Z,15.05
2019-04-28T03:34:32.351Z,17.80
2019-04-28T03:37:00.352Z,17.30
2019-04-28T03:39:30.462Z,19.23
2019-04-28T03:42:00.558Z,14.98
2019-04-28T03:44:33.640Z,16.65
2019-04-28T03:47:03.063Z,15.98
2019-04-28T03:49:34.538Z,14.30
2019-04-28T03:52:05.872Z,15.88
2019-04-28T03:54:36.089Z,18.57
2019-04-28T03:57:06.334Z,15.58
2019-04-28T03:59:36.554Z,18.87
2019-04-28T04:02:06.790Z,16.67
2019-04-28T04:04:36.879Z,17.20
2019-04-28T04:07:07.070Z,15.88
2019-04-28T04:09:44.845Z,17.15
2019-04-28T04:12:22.665Z,18.65
2019-04-28T04:14:57.339Z,15.80
2019-04-28T04:17:34.924Z,19.02
2019-04-28T04:20:07.822Z,19.60
2019-04-28T04:22:37.952Z,15.18
2019-04-28T04:25:10.208Z,21.27
2019-04-28T04:27:40.611Z,16.23
2019-04-28T04:30:11.954Z,23.12
2019-04-28T04:32:42.123Z,23.18
2019-04-28T04:35:12.354Z,22.90
2019-04-28T04:37:42.602Z,21.35
2019-04-28T04:40:13.411Z,20.12
2019-04-28T04:42:43.793Z,21.37
2019-04-28T04:45:13.977Z,22.30
2019-04-28T04:47:44.139Z,20.20
2019-04-28T04:50:14.378Z,20.72
2019-04-28T04:52:44.612Z,23.75
2019-04-28T04:55:14.873Z,17.92
2019-04-28T04:57:45.112Z,19.80
2019-04-28T05:00:20.931Z,17.62
2019-04-28T05:03:00.766Z,18.17
2019-04-28T05:05:34.421Z,21.27
2019-04-28T05:08:04.584Z,19.57
2019-04-28T05:10:34.737Z,17.55
2019-04-28T05:13:04.979Z,21.05
2019-04-28T05:15:35.469Z,18.70
2019-04-28T05:18:05.661Z,17.65
2019-04-28T05:20:35.873Z,15.83
2019-04-28T05:23:10.333Z,12.55
2019-04-28T05:25:42.187Z,12.20
2019-04-28T05:28:12.499Z,14.28
2019-04-28T05:30:43.138Z,15.90
2019-04-28T05:33:15.002Z,12.65
2019-04-28T05:35:45.170Z,15.00
2019-04-28T05:38:15.424Z,14.70
2019-04-28T05:40:45.632Z,14.45
2019-04-28T05:43:15.817Z,13.88
2019-04-28T05:45:46.043Z,14.35
2019-04-28T05:48:17.844Z,13.80
2019-04-28T05:50:50.099Z,15.75
2019-04-28T05:53:22.837Z,15.35
2019-04-28T05:55:57.268Z,11.30
2019-04-28T05:58:31.643Z,15.25
2019-04-28T06:01:06.268Z,13.35
2019-04-28T06:03:36.781Z,12.45
2019-04-28T06:06:06.968Z,10.95
2019-04-28T06:08:41.560Z,9.85
2019-04-28T06:11:32.032Z,6.05
2019-04-28T06:14:02.182Z,3.25
2019-04-28T06:16:32.332Z,3.87
2019-04-28T06:19:02.540Z,2.67
2019-04-28T06:21:32.834Z,4.62
2019-04-28T06:24:02.896Z,2.42
2019-04-28T06:26:33.043Z,0.50
2019-04-28T06:29:03.247Z,1.45
2019-04-28T06:31:34.305Z,2.83
2019-04-28T06:34:04.650Z,0.30
2019-04-28T06:36:34.875Z,1.55
2019-04-28T06:39:07.365Z,0.30
2019-04-28T06:41:37.543Z,1.25
2019-04-28T06:44:07.764Z,0.25
2019-04-28T06:46:37.781Z,0.75
2019-04-28T06:49:07.863Z,0.80
2019-04-28T06:51:37.872Z,2.55
2019-04-28T06:54:08.037Z,0.70
2019-04-28T06:56:38.288Z,0.85
2019-04-28T06:59:08.496Z,1.42
2019-04-28T07:01:38.645Z,1.45
2019-04-28T07:04:08.881Z,2.02
2019-04-28T07:06:38.881Z,3.10
2019-04-28T07:09:09.077Z,4.33
2019-04-28T07:11:39.104Z,0.93
2019-04-28T07:14:09.325Z,6.80
2019-04-28T07:16:39.401Z,2.25
2019-04-28T07:19:09.570Z,0.80
2019-04-28T07:21:58.930Z,4.03
2019-04-28T07:24:29.168Z,2.55
2019-04-28T07:26:59.380Z,2.67
2019-04-28T07:29:29.492Z,3.12
2019-04-28T07:31:59.904Z,4.35
2019-04-28T07:34:30.044Z,2.02
2019-04-28T07:37:00.189Z,0.82
2019-04-28T07:39:30.486Z,2.65
2019-04-28T07:42:00.617Z,1.95
2019-04-28T07:44:30.858Z,0.42
2019-04-28T07:47:01.068Z,0.80
2019-04-28T07:49:31.284Z,1.85
2019-04-28T07:52:05.961Z,0.37
2019-04-28T07:54:36.123Z,0.60
2019-04-28T07:57:06.207Z,0.82
2019-04-28T07:59:36.418Z,0.82
2019-04-28T08:02:07.596Z,0.50
2019-04-28T08:04:37.811Z,0.53
2019-04-28T08:07:07.964Z,0.88
2019-04-28T08:09:38.124Z,0.72
2019-04-28T08:12:08.329Z,0.33
2019-04-28T08:14:38.430Z,4.20
2019-04-28T08:17:08.523Z,0.30
2019-04-28T08:19:38.591Z,1.12
2019-04-28T08:22:08.720Z,3.52
2019-04-28T08:24:38.920Z,2.25
2019-04-28T08:27:09.183Z,2.05
2019-04-28T08:29:39.403Z,0.35
2019-04-28T08:32:19.817Z,0.20
2019-04-28T08:34:49.991Z,0.40
2019-04-28T08:37:20.131Z,2.05
2019-04-28T08:39:50.418Z,1.25
2019-04-28T08:42:20.500Z,1.77
2019-04-28T08:44:50.662Z,5.17
2019-04-28T08:47:20.868Z,1.90
2019-04-28T08:49:51.096Z,4.10
2019-04-28T08:52:21.239Z,4.30
2019-04-28T08:54:51.339Z,3.08
2019-04-28T08:57:21.557Z,5.25
2019-04-28T08:59:51.640Z,2.87
2019-04-28T09:02:21.848Z,2.75
2019-04-28T09:04:52.060Z,2.67
2019-04-28T09:07:23.241Z,4.03
2019-04-28T09:09:53.364Z,2.90
2019-04-28T09:12:23.565Z,1.90
2019-04-28T09:14:53.648Z,3.02
2019-04-28T09:17:23.817Z,2.12
2019-04-28T09:19:53.902Z,2.70
2019-04-28T09:22:24.198Z,2.55
2019-04-28T09:24:54.361Z,2.33
2019-04-28T09:27:24.500Z,1.52
2019-04-28T09:29:54.580Z,1.40
2019-04-28T09:32:24.791Z,1.10
2019-04-28T09:34:55.003Z,1.70
2019-04-28T09:37:25.086Z,2.12
2019-04-28T09:40:02.643Z,0.80
2019-04-28T09:42:34.420Z,0.70
2019-04-28T09:45:15.275Z,2.00
2019-04-28T09:47:45.511Z,10.23
2019-04-28T09:50:16.189Z,10.35
2019-04-28T09:52:48.764Z,11.45
2019-04-28T09:55:18.223Z,19.52
2019-04-28T09:57:48.390Z,15.85
2019-04-28T10:00:18.628Z,3.47
2019-04-28T10:02:48.853Z,4.83
2019-04-28T10:05:19.002Z,3.17
2019-04-28T10:07:49.092Z,2.02
2019-04-28T10:10:19.423Z,1.57
2019-04-28T10:12:49.561Z,10.58
2019-04-28T10:15:19.801Z,1.10
2019-04-28T10:17:49.949Z,2.05
2019-04-28T10:20:20.214Z,1.57
2019-04-28T10:22:50.252Z,2.60
2019-04-28T10:25:21.252Z,2.05
2019-04-28T10:27:52.584Z,2.67
2019-04-28T10:30:22.893Z,2.08
2019-04-28T10:32:53.110Z,2.65
2019-04-28T10:35:24.342Z,1.65
2019-04-28T10:37:54.557Z,1.77
2019-04-28T10:40:37.039Z,1.35
2019-04-28T10:43:07.201Z,3.22
2019-04-28T10:45:46.444Z,1.62
2019-04-28T10:48:16.692Z,1.20
2019-04-28T10:50:46.921Z,1.80
2019-04-28T10:53:17.215Z,1.77
2019-04-28T10:55:47.385Z,1.42
2019-04-28T10:58:17.611Z,3.90
2019-04-28T11:00:47.973Z,2.20
2019-04-28T11:03:18.199Z,2.15
2019-04-28T11:05:49.475Z,1.52
2019-04-28T11:08:38.971Z,2.27
2019-04-28T11:11:13.604Z,2.87
2019-04-28T11:13:43.894Z,3.80
2019-04-28T11:16:15.612Z,1.17
2019-04-28T11:18:45.845Z,1.92
2019-04-28T11:21:16.865Z,1.60
2019-04-28T11:23:47.004Z,2.77
2019-04-28T11:26:17.210Z,0.95
2019-04-28T11:28:47.433Z,2.85
2019-04-28T11:31:17.736Z,0.90
2019-04-28T11:33:52.176Z,2.45
2019-04-28T11:36:22.648Z,1.25
2019-04-28T11:38:52.872Z,1.57
2019-04-28T11:41:22.957Z,1.17
2019-04-28T11:43:53.172Z,1.50
2019-04-28T11:46:24.436Z,1.47
2019-04-28T11:48:54.512Z,1.40
2019-04-28T11:51:24.667Z,1.10
2019-04-28T11:53:54.844Z,2.50
2019-04-28T11:56:24.912Z,3.77
2019-04-28T11:58:55.149Z,1.57
2019-04-28T12:01:25.433Z,1.35
2019-04-28T12:03:57.218Z,1.75
2019-04-28T12:06:27.394Z,0.72
2019-04-28T12:08:59.196Z,1.05
2019-04-28T12:11:40.310Z,1.00
2019-04-28T12:14:13.116Z,0.82
2019-04-28T12:16:53.836Z,1.15
2019-04-28T12:19:31.558Z,1.17
2019-04-28T12:22:04.295Z,0.85
2019-04-28T12:24:34.523Z,0.68
2019-04-28T12:27:06.446Z,3.02
2019-04-28T12:29:36.726Z,0.98
2019-04-28T12:32:07.058Z,1.52
2019-04-28T12:34:37.386Z,1.82
2019-04-28T12:37:08.719Z,1.60
2019-04-28T12:39:38.984Z,1.35
2019-04-28T12:42:09.367Z,1.45
2019-04-28T12:44:39.652Z,2.00
2019-04-28T12:47:10.887Z,1.12
2019-04-28T12:49:43.421Z,0.90
2019-04-28T12:52:14.626Z,22.50
2019-04-28T12:54:45.059Z,1.60
2019-04-28T12:57:15.483Z,1.17
2019-04-28T12:59:52.983Z,1.10
2019-04-28T13:02:30.470Z,7.08
2019-04-28T13:05:02.381Z,5.95
2019-04-28T13:07:34.668Z,3.45
2019-04-28T13:10:07.431Z,2.30
2019-04-28T13:12:37.762Z,1.40
2019-04-28T13:15:08.088Z,3.87
2019-04-28T13:17:38.349Z,1.57
2019-04-28T13:20:09.529Z,2.10
2019-04-28T13:22:39.686Z,1.45
2019-04-28T13:25:09.985Z,3.20
2019-04-28T13:27:40.215Z,1.70
2019-04-28T13:30:10.557Z,3.95
2019-04-28T13:32:40.645Z,4.62
2019-04-28T13:35:11.258Z,2.37
2019-04-28T13:37:41.438Z,3.50
2019-04-28T13:40:23.106Z,5.92
2019-04-28T13:42:53.276Z,2.87
2019-04-28T13:45:25.158Z,6.05
2019-04-28T13:47:55.407Z,0.40
2019-04-28T13:50:30.297Z,0.47
2019-04-28T13:53:00.530Z,3.70
2019-04-28T13:55:47.396Z,1.20
2019-04-28T13:58:19.268Z,2.42
2019-04-28T14:01:06.997Z,1.12
2019-04-28T14:03:44.462Z,2.37
2019-04-28T14:06:27.629Z,1.00
2019-04-28T14:08:48.203Z,3.12
2019-04-28T14:11:18.470Z,4.12
2019-04-28T14:13:48.593Z,7.45
2019-04-28T14:16:19.725Z,2.12
2019-04-28T14:18:49.994Z,2.98
2019-04-28T14:21:20.197Z,2.27
2019-04-28T14:23:50.794Z,0.90
2019-04-28T14:26:21.010Z,1.02
2019-04-28T14:28:51.248Z,1.75
2019-04-28T14:31:21.410Z,1.02
2019-04-28T14:33:51.670Z,1.00
2019-04-28T14:36:21.940Z,1.15
2019-04-28T14:38:52.194Z,0.68
2019-04-28T14:41:22.200Z,0.70
2019-04-28T14:43:52.592Z,2.67
2019-04-28T14:46:22.880Z,0.88
2019-04-28T14:48:53.228Z,1.65
2019-04-28T14:51:23.428Z,0.80
2019-04-28T14:53:53.777Z,1.47
2019-04-28T14:56:24.009Z,2.12
2019-04-28T14:58:54.217Z,1.25
2019-04-28T15:01:40.986Z,1.52
2019-04-28T15:04:12.773Z,1.10
2019-04-28T15:06:56.158Z,1.57
2019-04-28T15:09:26.109Z,0.70
2019-04-28T15:11:57.947Z,0.82
2019-04-28T15:14:28.218Z,0.72
2019-04-28T15:16:58.422Z,1.50
2019-04-28T15:19:28.634Z,1.42
2019-04-28T15:21:58.816Z,2.75
2019-04-28T15:24:28.969Z,1.35
2019-04-28T15:26:59.218Z,2.08
2019-04-28T15:29:29.377Z,0.80
2019-04-28T15:31:59.465Z,4.20
2019-04-28T15:34:29.637Z,3.62
2019-04-28T15:37:09.656Z,0.90
2019-04-28T15:39:32.666Z,0.85
2019-04-28T15:42:02.819Z,1.15
2019-04-28T15:44:33.059Z,3.02
2019-04-28T15:47:03.273Z,2.22
2019-04-28T15:49:33.435Z,1.80
2019-04-28T15:52:03.678Z,1.45
2019-04-28T15:54:33.988Z,2.85
2019-04-28T15:57:04.198Z,3.33
2019-04-28T15:59:34.366Z,1.00
2019-04-28T16:02:05.596Z,2.33
2019-04-28T16:04:35.946Z,1.77
2019-04-28T16:07:06.262Z,1.02
2019-04-28T16:09:37.502Z,2.83
2019-04-28T16:12:07.814Z,0.82
2019-04-28T16:14:38.857Z,1.42
2019-04-28T16:17:10.138Z,2.87
2019-04-28T16:19:40.307Z,1.02
2019-04-28T16:22:12.568Z,1.65
2019-04-28T16:24:42.605Z,3.00
2019-04-28T16:27:12.831Z,1.77
2019-04-28T16:29:43.045Z,1.30
2019-04-28T16:32:14.699Z,1.02
2019-04-28T16:34:44.978Z,1.75
2019-04-28T16:37:16.782Z,4.95
2019-04-28T16:39:47.048Z,3.12
2019-04-28T16:42:19.084Z,1.65
2019-04-28T16:44:51.813Z,2.35
2019-04-28T16:47:22.585Z,1.22
2019-04-28T16:49:53.135Z,1.90
2019-04-28T16:52:27.822Z,1.30
2019-04-28T16:55:17.662Z,1.72
2019-04-28T16:58:01.241Z,1.12
2019-04-28T17:00:49.062Z,1.02
2019-04-28T17:03:19.272Z,0.85
2019-04-28T17:05:49.605Z,1.55
2019-04-28T17:08:19.602Z,0.78
2019-04-28T17:10:49.913Z,3.02
2019-04-28T17:13:20.164Z,0.90
2019-04-28T17:15:50.302Z,2.60
2019-04-28T17:18:20.623Z,1.75
2019-04-28T17:20:54.039Z,1.85
2019-04-28T17:23:22.931Z,0.98
2019-04-28T17:25:53.168Z,1.35
2019-04-28T17:28:23.513Z,1.02
2019-04-28T17:30:53.606Z,0.82
2019-04-28T17:33:23.917Z,1.82
2019-04-28T17:35:54.116Z,3.72
2019-04-28T17:38:24.349Z,1.32
2019-04-28T17:40:54.493Z,1.57
2019-04-28T17:43:24.660Z,1.00
2019-04-28T17:45:54.873Z,1.45
2019-04-28T17:48:29.183Z,2.05
2019-04-28T17:50:59.322Z,1.77
2019-04-28T17:53:29.632Z,1.70
2019-04-28T17:55:59.883Z,1.30
2019-04-28T17:58:30.134Z,1.67
2019-04-28T18:01:01.998Z,2.58
2019-04-28T18:03:51.631Z,2.58
2019-04-28T18:06:26.278Z,1.75
2019-04-28T18:08:58.109Z,2.17
2019-04-28T18:11:28.387Z,1.80
2019-04-28T18:13:58.649Z,2.65
2019-04-28T18:16:46.403Z,1.98
2019-04-28T18:19:32.046Z,2.47
2019-04-28T18:22:04.409Z,1.75
2019-04-28T18:24:35.265Z,1.65
2019-04-28T18:27:05.609Z,2.27
2019-04-28T18:29:39.063Z,2.52
2019-04-28T18:32:17.619Z,2.55
2019-04-28T18:35:04.882Z,1.22
2019-04-28T18:37:42.563Z,1.40
2019-04-28T18:40:20.497Z,1.55
2019-04-28T18:42:52.236Z,1.85
2019-04-28T18:45:22.284Z,3.22
2019-04-28T18:47:52.385Z,4.12
2019-04-28T18:50:22.573Z,2.62
2019-04-28T18:52:52.760Z,2.42
2019-04-28T18:55:22.901Z,2.30
2019-04-28T18:57:53.143Z,1.60
2019-04-28T19:00:25.001Z,2.27
2019-04-28T19:02:55.153Z,1.72
2019-04-28T19:05:27.001Z,2.08
2019-04-28T19:08:04.441Z,3.50
2019-04-28T19:10:47.991Z,3.98
2019-04-28T19:13:35.553Z,2.80
2019-04-28T19:16:25.436Z,3.20
2019-04-28T19:18:57.161Z,3.98
2019-04-28T19:21:27.441Z,1.87
2019-04-28T19:23:57.697Z,3.92
2019-04-28T19:26:27.845Z,3.00
2019-04-28T19:28:58.076Z,3.05
2019-04-28T19:31:28.239Z,1.30
2019-04-28T19:33:58.403Z,1.90
2019-04-28T19:36:28.492Z,1.50
2019-04-28T19:39:03.313Z,1.52
2019-04-28T19:41:30.664Z,5.83
2019-04-28T19:44:00.837Z,3.70
2019-04-28T19:46:30.976Z,1.95
2019-04-28T19:49:02.211Z,1.87
2019-04-28T19:51:32.436Z,2.95
2019-04-28T19:54:03.748Z,2.60
2019-04-28T19:56:35.593Z,1.87
2019-04-28T19:59:22.299Z,1.87
2019-04-28T20:01:52.447Z,1.45
2019-04-28T20:04:22.741Z,2.02
2019-04-28T20:06:52.960Z,1.52
2019-04-28T20:09:23.219Z,2.77
2019-04-28T20:11:53.459Z,2.08
2019-04-28T20:14:23.528Z,2.00
2019-04-28T20:16:53.749Z,5.42
2019-04-28T20:19:23.847Z,3.87
2019-04-28T20:21:54.096Z,3.70
2019-04-28T20:24:24.243Z,2.33
2019-04-28T20:26:54.328Z,3.02
2019-04-28T20:29:24.428Z,4.28
2019-04-28T20:31:54.653Z,30.32
2019-04-28T20:34:24.796Z,8.58
2019-04-28T20:36:56.663Z,6.22
2019-04-28T20:39:31.093Z,5.33
2019-04-28T20:42:18.912Z,1.62
2019-04-28T20:47:18.206Z,1.87
2019-04-28T20:49:48.424Z,0.98
2019-04-28T20:52:18.578Z,1.35
2019-04-28T20:54:48.722Z,0.42
2019-04-28T20:57:18.879Z,0.23
2019-04-28T20:59:49.030Z,1.17
2019-04-28T21:02:19.252Z,0.30
2019-04-28T21:04:49.333Z,0.15
2019-04-28T21:07:19.429Z,0.40
2019-04-28T21:09:49.503Z,0.35
2019-04-28T21:12:19.584Z,0.68
2019-04-28T21:14:49.739Z,2.65
2019-04-28T21:17:19.880Z,0.30
2019-04-28T21:19:50.101Z,0.35
2019-04-28T21:22:20.317Z,0.70
2019-04-28T21:24:50.400Z,0.82
2019-04-28T21:27:20.545Z,0.47
2019-04-28T21:29:50.740Z,0.30
2019-04-28T21:32:20.850Z,0.62
2019-04-28T21:34:50.956Z,0.28
2019-04-28T21:37:21.106Z,0.85
2019-04-28T21:39:51.220Z,0.60
2019-04-28T21:42:22.979Z,0.82
2019-04-28T21:45:03.341Z,0.20
2019-04-28T21:47:35.205Z,1.02
2019-04-28T21:50:06.884Z,0.95
2019-04-28T21:52:37.072Z,2.22
2019-04-28T21:55:07.736Z,1.72
2019-04-28T21:57:37.813Z,0.85
2019-04-28T22:00:09.711Z,2.70
2019-04-28T22:02:39.114Z,0.80
2019-04-28T22:05:09.432Z,2.40
2019-04-28T22:07:39.745Z,1.77
2019-04-28T22:10:10.061Z,2.58
2019-04-28T22:12:40.149Z,3.37
2019-04-28T22:15:10.356Z,0.95
2019-04-28T22:17:40.561Z,1.70
2019-04-28T22:20:10.813Z,1.67
2019-04-28T22:22:41.086Z,0.93
2019-04-28T22:25:15.617Z,2.25
2019-04-28T22:27:45.808Z,0.53
2019-04-28T22:30:16.028Z,0.50
2019-04-28T22:32:46.187Z,2.65
2019-04-28T22:35:16.265Z,0.62
2019-04-28T22:37:46.469Z,0.82
2019-04-28T22:40:16.764Z,1.05
2019-04-28T22:42:46.914Z,1.80
2019-04-28T22:45:17.445Z,2.42
2019-04-28T22:47:47.504Z,1.32
2019-04-28T22:50:41.488Z,1.62
2019-04-28T22:53:12.107Z,1.98
2019-04-28T22:55:46.531Z,0.90
2019-04-28T22:58:29.760Z,1.10
2019-04-28T23:01:16.600Z,0.80
2019-04-28T23:03:48.445Z,1.85
2019-04-28T23:06:18.869Z,0.78
2019-04-28T23:08:49.001Z,0.78
2019-04-28T23:11:19.156Z,0.57
2019-04-28T23:13:49.292Z,0.50
2019-04-28T23:16:19.451Z,1.37
2019-04-28T23:18:50.021Z,0.78
2019-04-28T23:21:37.944Z,1.25
2019-04-28T23:26:37.360Z,1.52
2019-04-28T23:29:07.584Z,1.62
2019-04-28T23:31:37.662Z,1.22
2019-04-28T23:34:07.733Z,0.65
2019-04-28T23:36:37.973Z,1.65
2019-04-28T23:39:08.700Z,0.70
2019-04-28T23:41:40.583Z,0.70
2019-04-28T23:44:10.816Z,0.70
2019-04-28T23:46:57.296Z,0.82
2019-04-28T23:49:29.540Z,1.40
2019-04-28T23:52:04.292Z,0.65
2019-04-28T23:54:36.010Z,1.05
2019-04-28T23:57:07.413Z,2.70
2019-04-28T23:59:37.704Z,0.40
